createdAt,value
2022-11-02T00:01:47.231Z,10.68
2022-11-02T00:04:13.644Z,10.52
2022-11-02T00:06:41.217Z,10.85
2022-11-02T00:09:08.118Z,12.98
2022-11-02T00:11:34.531Z,10.40
2022-11-02T00:14:01.733Z,9.75
2022-11-02T00:16:28.214Z,7.45
2022-11-02T00:18:58.513Z,12.02
2022-11-02T00:21:27.182Z,9.15
2022-11-02T00:23:55.913Z,7.88
2022-11-02T00:26:22.353Z,8.95
2022-11-02T00:28:49.218Z,9.35
2022-11-02T00:31:15.622Z,10.63
2022-11-02T00:33:41.991Z,9.95
2022-11-02T00:36:08.748Z,7.75
2022-11-02T00:38:35.192Z,9.30
2022-11-02T00:41:01.608Z,10.48
2022-11-02T00:43:28.542Z,9.15
2022-11-02T00:45:55.063Z,7.30
2022-11-02T00:48:22.045Z,7.72
2022-11-02T00:50:48.545Z,13.95
2022-11-02T00:53:15.699Z,7.88
2022-11-02T00:55:50.040Z,7.85
2022-11-02T00:58:16.436Z,6.78
2022-11-02T01:00:43.011Z,8.88
2022-11-02T01:03:09.469Z,7.47
2022-11-02T01:05:37.545Z,8.40
2022-11-02T01:08:05.648Z,8.95
2022-11-02T01:10:32.399Z,10.02
2022-11-02T01:13:01.077Z,25.70
2022-11-02T01:15:27.512Z,8.50
2022-11-02T01:17:53.887Z,9.52
2022-11-02T01:20:20.475Z,8.15
2022-11-02T01:22:46.860Z,10.05
2022-11-02T01:25:13.495Z,10.15
2022-11-02T01:27:39.931Z,8.25
2022-11-02T01:30:06.770Z,8.07
2022-11-02T01:32:33.229Z,9.75
2022-11-02T01:34:59.604Z,7.82
2022-11-02T01:37:26.029Z,10.00
2022-11-02T01:39:52.379Z,8.85
2022-11-02T01:42:25.391Z,10.40
2022-11-02T01:44:51.840Z,10.77
2022-11-02T01:47:38.979Z,8.35
2022-11-02T01:50:14.751Z,9.77
2022-11-02T01:52:41.425Z,10.60
2022-11-02T01:55:13.317Z,7.63
2022-11-02T01:57:43.287Z,7.97
2022-11-02T02:00:13.676Z,8.40
2022-11-02T02:02:48.555Z,8.18
2022-11-02T02:05:17.570Z,8.38
2022-11-02T02:07:44.155Z,9.40
2022-11-02T02:10:11.965Z,7.25
2022-11-02T02:12:41.043Z,6.57
2022-11-02T02:15:08.485Z,10.73
2022-11-02T02:17:44.012Z,9.45
2022-11-02T02:20:51.647Z,8.45
2022-11-02T02:23:38.523Z,7.03
2022-11-02T02:26:15.096Z,9.20
2022-11-02T02:29:06.620Z,7.63
2022-11-02T02:31:39.595Z,9.32
2022-11-02T02:34:30.028Z,8.43
2022-11-02T02:37:15.123Z,10.32
2022-11-02T02:39:49.928Z,7.50
2022-11-02T02:42:33.532Z,8.35
2022-11-02T02:45:15.863Z,9.60
2022-11-02T02:47:54.581Z,8.05
2022-11-02T02:50:27.452Z,8.07
2022-11-02T02:52:55.562Z,10.70
2022-11-02T02:55:32.085Z,9.68
2022-11-02T02:58:02.527Z,9.35
2022-11-02T03:00:33.887Z,9.98
2022-11-02T03:03:01.837Z,8.82
2022-11-02T03:05:35.005Z,8.55
2022-11-02T03:08:11.673Z,10.15
2022-11-02T03:10:48.552Z,10.85
2022-11-02T03:13:42.637Z,9.68
2022-11-02T03:16:22.784Z,11.95
2022-11-02T03:19:14.029Z,12.02
2022-11-02T03:21:59.326Z,8.50
2022-11-02T03:24:32.248Z,11.70
2022-11-02T03:27:13.217Z,11.48
2022-11-02T03:29:53.483Z,9.13
2022-11-02T03:32:36.148Z,10.75
2022-11-02T03:35:08.115Z,7.53
2022-11-02T03:37:41.451Z,11.07
2022-11-02T03:40:27.112Z,10.30
2022-11-02T03:42:55.030Z,9.68
2022-11-02T03:45:26.853Z,7.55
2022-11-02T03:48:03.232Z,7.40
2022-11-02T03:50:32.256Z,12.77
2022-11-02T03:53:19.047Z,11.57
2022-11-02T03:55:50.832Z,10.50
2022-11-02T03:58:17.321Z,8.35
2022-11-02T04:00:53.135Z,14.77
2022-11-02T04:03:22.421Z,10.55
2022-11-02T04:05:49.105Z,10.63
2022-11-02T04:08:34.252Z,10.52
2022-11-02T04:11:22.195Z,9.18
2022-11-02T04:14:09.180Z,8.35
2022-11-02T04:16:38.984Z,9.68
2022-11-02T04:19:29.113Z,7.82
2022-11-02T04:22:23.903Z,7.63
2022-11-02T04:25:14.136Z,8.02
2022-11-02T04:27:43.171Z,7.03
2022-11-02T04:30:10.932Z,7.85
2022-11-02T04:33:01.190Z,8.15
2022-11-02T04:35:31.738Z,10.00
2022-11-02T04:38:17.941Z,12.60
2022-11-02T04:40:44.995Z,9.93
2022-11-02T04:43:11.553Z,10.52
2022-11-02T04:45:39.045Z,10.88
2022-11-02T04:48:08.983Z,12.35
2022-11-02T04:50:36.601Z,10.60
2022-11-02T04:53:07.055Z,13.32
2022-11-02T04:55:34.575Z,9.05
2022-11-02T04:58:01.247Z,12.38
2022-11-02T05:00:27.965Z,6.70
2022-11-02T05:02:54.539Z,7.18
2022-11-02T05:05:22.620Z,8.77
2022-11-02T05:07:51.347Z,12.30
2022-11-02T05:10:18.265Z,9.13
2022-11-02T05:12:46.187Z,10.82
2022-11-02T05:15:13.571Z,14.48
2022-11-02T05:17:39.977Z,8.48
2022-11-02T05:20:08.657Z,8.35
2022-11-02T05:22:35.002Z,10.15
2022-11-02T05:25:01.445Z,12.65
2022-11-02T05:27:28.125Z,10.38
2022-11-02T05:29:54.754Z,8.32
2022-11-02T05:32:22.286Z,8.93
2022-11-02T05:34:48.912Z,8.10
2022-11-02T05:37:15.296Z,8.90
2022-11-02T05:39:44.056Z,9.43
2022-11-02T05:42:12.958Z,8.18
2022-11-02T05:44:39.456Z,8.00
2022-11-02T05:47:06.208Z,8.07
2022-11-02T05:49:32.588Z,7.22
2022-11-02T05:51:59.144Z,8.40
2022-11-02T05:54:25.484Z,9.38
2022-11-02T05:56:52.212Z,7.75
2022-11-02T05:59:18.633Z,9.77
2022-11-02T06:01:45.120Z,7.03
2022-11-02T06:04:11.547Z,8.20
2022-11-02T06:06:38.204Z,10.30
2022-11-02T06:09:07.329Z,11.13
2022-11-02T06:11:33.823Z,8.75
2022-11-02T06:14:00.291Z,8.48
2022-11-02T06:16:27.741Z,10.32
2022-11-02T06:18:54.164Z,10.52
2022-11-02T06:21:20.887Z,7.70
2022-11-02T06:23:48.519Z,9.82
2022-11-02T06:26:15.266Z,9.60
2022-11-02T06:28:42.254Z,8.02
2022-11-02T06:31:09.588Z,9.00
2022-11-02T06:33:36.023Z,7.82
2022-11-02T06:36:02.474Z,10.18
2022-11-02T06:38:28.888Z,11.93
2022-11-02T06:41:01.989Z,9.38
2022-11-02T06:45:56.235Z,8.38
2022-11-02T06:48:23.175Z,9.57
2022-11-02T06:50:49.519Z,8.90
2022-11-02T06:53:15.984Z,11.18
2022-11-02T06:55:42.479Z,8.00
2022-11-02T06:58:08.847Z,10.88
2022-11-02T07:00:35.460Z,9.57
2022-11-02T07:03:04.417Z,9.18
2022-11-02T07:05:32.275Z,7.95
2022-11-02T07:07:59.049Z,9.85
2022-11-02T07:10:26.294Z,9.13
2022-11-02T07:12:54.193Z,10.43
2022-11-02T07:15:22.221Z,13.25
2022-11-02T07:17:48.711Z,8.77
2022-11-02T07:20:15.531Z,10.57
2022-11-02T07:22:42.385Z,10.38
2022-11-02T07:25:08.944Z,10.75
2022-11-02T07:27:39.859Z,11.55
2022-11-02T07:30:07.750Z,15.45
2022-11-02T07:32:41.697Z,10.00
2022-11-02T07:35:10.023Z,13.63
2022-11-02T07:37:36.583Z,12.18
2022-11-02T07:40:04.772Z,13.07
2022-11-02T07:42:31.390Z,12.07
2022-11-02T07:44:58.198Z,12.23
2022-11-02T07:47:25.526Z,10.02
2022-11-02T07:49:51.911Z,12.52
2022-11-02T07:52:18.283Z,9.45
2022-11-02T07:54:44.987Z,10.43
2022-11-02T07:57:11.448Z,13.98
2022-11-02T07:59:37.847Z,15.38
2022-11-02T08:02:04.262Z,13.60
2022-11-02T08:04:30.649Z,10.70
2022-11-02T08:06:58.393Z,12.00
2022-11-02T08:09:24.875Z,12.88
2022-11-02T08:11:51.248Z,10.82
2022-11-02T08:14:17.610Z,10.32
2022-11-02T08:16:44.356Z,11.52
2022-11-02T08:19:10.724Z,15.05
2022-11-02T08:21:37.159Z,11.55
2022-11-02T08:24:03.995Z,10.00
2022-11-02T08:26:30.329Z,9.77
2022-11-02T08:28:56.781Z,11.93
2022-11-02T08:31:23.771Z,10.90
2022-11-02T08:33:50.202Z,14.23
2022-11-02T08:36:16.599Z,14.38
2022-11-02T08:38:43.086Z,12.80
2022-11-02T08:41:09.535Z,15.63
2022-11-02T08:43:35.939Z,8.95
2022-11-02T08:46:18.473Z,10.23
2022-11-02T08:48:45.291Z,11.05
2022-11-02T08:51:12.241Z,9.60
2022-11-02T08:53:38.694Z,11.20
2022-11-02T08:56:05.245Z,11.00
2022-11-02T08:58:31.648Z,15.43
2022-11-02T09:00:58.097Z,6.60
2022-11-02T09:03:26.938Z,7.90
2022-11-02T09:05:59.677Z,7.10
2022-11-02T09:08:27.359Z,13.25
2022-11-02T09:10:58.560Z,10.45
2022-11-02T09:13:25.592Z,11.77
2022-11-02T09:15:54.427Z,8.40
2022-11-02T09:18:21.506Z,12.05
2022-11-02T09:20:48.603Z,12.40
2022-11-02T09:23:16.172Z,13.55
2022-11-02T09:25:42.799Z,11.27
2022-11-02T09:28:09.737Z,10.05
2022-11-02T09:30:36.708Z,9.70
2022-11-02T09:33:05.879Z,10.20
2022-11-02T09:35:35.059Z,16.33
2022-11-02T09:38:01.763Z,10.40
2022-11-02T09:40:35.536Z,10.55
2022-11-02T09:43:05.191Z,8.63
2022-11-02T09:45:36.339Z,12.57
2022-11-02T09:48:24.812Z,7.75
2022-11-02T09:51:10.488Z,13.65
2022-11-02T09:53:46.952Z,11.40
2022-11-02T09:56:16.252Z,11.68
2022-11-02T09:58:43.896Z,10.68
2022-11-02T10:01:24.992Z,11.13
2022-11-02T10:04:45.660Z,12.90
2022-11-02T10:07:34.273Z,12.10
2022-11-02T10:10:11.727Z,14.77
2022-11-02T10:13:13.333Z,13.18
2022-11-02T10:15:52.461Z,11.70
2022-11-02T10:18:24.315Z,9.00
2022-11-02T10:20:58.123Z,9.65
2022-11-02T10:23:24.563Z,9.65
2022-11-02T10:25:51.800Z,12.35
2022-11-02T10:28:24.265Z,10.63
2022-11-02T10:30:53.828Z,9.55
2022-11-02T10:33:26.431Z,9.63
2022-11-02T10:36:18.898Z,8.82
2022-11-02T10:39:23.420Z,12.63
2022-11-02T10:42:18.967Z,9.93
2022-11-02T10:45:20.923Z,9.65
2022-11-02T10:48:07.799Z,8.77
2022-11-02T10:50:47.235Z,10.30
2022-11-02T10:56:23.164Z,11.15
2022-11-02T10:58:58.960Z,10.13
2022-11-02T11:01:26.941Z,10.23
2022-11-02T11:03:53.369Z,9.68
2022-11-02T11:06:20.563Z,8.13
2022-11-02T11:08:49.788Z,6.55
2022-11-02T11:11:52.148Z,9.48
2022-11-02T11:20:36.961Z,7.78
2022-11-02T11:23:12.388Z,8.23
2022-11-02T11:25:40.722Z,9.82
2022-11-02T11:28:23.630Z,8.32
2022-11-02T11:31:08.826Z,7.78
2022-11-02T11:33:53.158Z,6.43
2022-11-02T11:38:58.886Z,13.00
2022-11-02T11:41:25.553Z,8.93
2022-11-02T11:43:53.126Z,8.27
2022-11-02T11:46:19.739Z,10.15
2022-11-02T11:49:05.213Z,8.30
2022-11-02T11:51:39.756Z,8.77
2022-11-02T11:54:18.052Z,6.97
2022-11-02T11:56:44.875Z,11.45
2022-11-02T11:59:43.656Z,9.43
2022-11-02T12:02:30.914Z,9.75
2022-11-02T12:05:17.718Z,9.07
2022-11-02T12:08:07.735Z,9.40
2022-11-02T12:10:49.961Z,9.23
2022-11-02T12:13:38.020Z,10.90
2022-11-02T12:16:29.567Z,8.05
2022-11-02T12:19:16.607Z,6.50
2022-11-02T12:22:01.332Z,6.85
2022-11-02T12:25:17.297Z,9.00
2022-11-02T12:28:04.891Z,6.72
2022-11-02T12:30:49.894Z,8.35
2022-11-02T12:33:42.468Z,7.88
2022-11-02T12:36:27.695Z,8.50
2022-11-02T12:39:04.300Z,6.43
2022-11-02T12:41:55.354Z,6.90
2022-11-02T12:44:33.909Z,6.28
2022-11-02T12:47:21.811Z,8.38
2022-11-02T12:50:12.902Z,6.30
2022-11-02T12:53:13.554Z,7.03
2022-11-02T12:55:46.685Z,11.13
2022-11-02T12:58:24.762Z,6.45
2022-11-02T13:01:02.721Z,9.18
2022-11-02T13:03:35.699Z,8.35
2022-11-02T13:06:08.536Z,4.50
2022-11-02T13:08:53.737Z,8.68
2022-11-02T13:11:30.385Z,10.32
2022-11-02T13:13:59.283Z,6.88
2022-11-02T13:17:05.187Z,8.20
2022-11-02T13:19:41.064Z,7.93
2022-11-02T13:22:11.865Z,8.15
2022-11-02T13:24:44.204Z,9.52
2022-11-02T13:27:41.325Z,5.88
2022-11-02T13:30:18.581Z,8.02
2022-11-02T13:32:50.015Z,5.93
2022-11-02T13:35:37.612Z,8.45
2022-11-02T13:38:09.091Z,12.43
2022-11-02T13:40:45.716Z,7.32
2022-11-02T13:43:36.444Z,7.95
2022-11-02T13:46:27.815Z,7.28
2022-11-02T13:49:03.942Z,8.70
2022-11-02T13:51:42.357Z,6.90
2022-11-02T13:54:35.489Z,7.13
2022-11-02T13:57:02.664Z,8.32
2022-11-02T13:59:42.065Z,6.50
2022-11-02T14:02:17.007Z,9.60
2022-11-02T14:04:44.284Z,10.27
2022-11-02T14:07:28.499Z,7.53
2022-11-02T14:10:06.992Z,5.60
2022-11-02T14:12:50.237Z,7.10
2022-11-02T14:17:56.167Z,8.55
2022-11-02T14:20:31.503Z,9.32
2022-11-02T14:23:10.232Z,6.00
2022-11-02T14:25:48.700Z,8.48
2022-11-02T14:28:21.524Z,5.53
2022-11-02T14:31:11.049Z,7.68
2022-11-02T14:33:59.146Z,6.78
2022-11-02T14:36:54.700Z,15.95
2022-11-02T14:39:46.444Z,7.43
2022-11-02T14:42:33.570Z,8.77
2022-11-02T14:45:05.213Z,8.00
2022-11-02T14:47:34.648Z,6.88
2022-11-02T14:50:16.961Z,6.32
2022-11-02T14:53:02.556Z,8.93
2022-11-02T14:55:34.553Z,7.22
2022-11-02T14:58:10.574Z,14.85
2022-11-02T15:00:54.638Z,8.05
2022-11-02T15:03:24.010Z,10.82
2022-11-02T15:06:25.180Z,7.63
2022-11-02T15:09:00.316Z,10.23
2022-11-02T15:11:42.418Z,8.02
2022-11-02T15:14:37.848Z,8.68
2022-11-02T15:17:10.623Z,8.27
2022-11-02T15:19:46.301Z,4.85
2022-11-02T15:22:31.204Z,7.70
2022-11-02T15:25:21.431Z,5.93
2022-11-02T15:27:50.999Z,7.47
2022-11-02T15:30:25.269Z,6.22
2022-11-02T15:33:05.863Z,6.40
2022-11-02T15:35:38.856Z,9.18
2022-11-02T15:38:30.526Z,6.72
2022-11-02T15:41:23.976Z,8.30
2022-11-02T15:44:08.628Z,7.28
2022-11-02T15:46:53.828Z,7.13
2022-11-02T15:49:48.091Z,5.15
2022-11-02T15:52:30.239Z,6.57
2022-11-02T15:55:07.970Z,8.75
2022-11-02T15:58:06.363Z,8.32
2022-11-02T16:00:33.042Z,5.60
2022-11-02T16:03:02.699Z,8.55
2022-11-02T16:05:38.098Z,6.30
2022-11-02T16:08:10.948Z,7.70
2022-11-02T16:13:10.083Z,5.95
2022-11-02T16:15:37.154Z,5.15
2022-11-02T16:18:03.845Z,10.02
2022-11-02T16:20:34.547Z,5.60
2022-11-02T16:23:03.433Z,7.38
2022-11-02T16:25:46.687Z,6.63
2022-11-02T16:28:21.242Z,6.90
2022-11-02T16:31:17.321Z,6.00
2022-11-02T16:33:46.657Z,7.93
2022-11-02T16:36:22.764Z,8.20
2022-11-02T16:38:59.606Z,15.43
2022-11-02T16:41:28.668Z,10.57
2022-11-02T16:43:57.319Z,11.35
2022-11-02T16:46:39.840Z,10.48
2022-11-02T16:49:16.326Z,7.97
2022-11-02T16:52:00.464Z,9.00
2022-11-02T16:54:34.534Z,10.63
2022-11-02T16:57:25.285Z,11.15
2022-11-02T17:00:01.216Z,9.57
2022-11-02T17:02:33.138Z,11.43
2022-11-02T17:05:04.749Z,13.00
2022-11-02T17:07:37.612Z,10.50
2022-11-02T17:10:06.337Z,13.80
2022-11-02T17:12:40.603Z,8.68
2022-11-02T17:15:20.515Z,12.23
2022-11-02T17:17:47.395Z,11.43
2022-11-02T17:20:16.702Z,10.02
2022-11-02T17:23:01.396Z,12.52
2022-11-02T17:25:36.846Z,15.75
2022-11-02T17:28:24.772Z,18.77
2022-11-02T17:30:52.635Z,18.00
2022-11-02T17:33:29.580Z,23.77
2022-11-02T17:36:03.544Z,23.58
2022-11-02T17:38:30.271Z,18.45
2022-11-02T17:40:59.377Z,23.15
2022-11-02T17:43:25.780Z,17.92
2022-11-02T17:45:57.189Z,16.35
2022-11-02T17:48:24.574Z,17.23
2022-11-02T17:50:55.688Z,15.98
2022-11-02T17:53:23.876Z,14.45
2022-11-02T17:55:50.438Z,11.05
2022-11-02T17:58:17.056Z,14.65
2022-11-02T18:00:43.841Z,19.77
2022-11-02T18:03:16.707Z,24.80
2022-11-02T18:05:46.672Z,32.28
2022-11-02T18:08:16.488Z,30.80
2022-11-02T18:10:47.913Z,28.15
2022-11-02T18:13:17.600Z,24.30
2022-11-02T18:15:44.520Z,21.77
2022-11-02T18:18:11.073Z,22.50
2022-11-02T18:20:41.604Z,21.02
2022-11-02T18:23:15.197Z,21.05
2022-11-02T18:28:08.440Z,24.55
2022-11-02T18:30:35.094Z,29.77
2022-11-02T18:33:02.663Z,30.63
2022-11-02T18:35:29.363Z,20.58
2022-11-02T18:37:55.737Z,21.08
2022-11-02T18:40:22.248Z,18.67
2022-11-02T18:42:48.696Z,15.68
2022-11-02T18:45:16.178Z,15.07
2022-11-02T18:47:42.951Z,15.52
2022-11-02T18:50:12.176Z,14.02
2022-11-02T18:52:39.512Z,15.35
2022-11-02T18:55:06.499Z,17.20
2022-11-02T18:57:32.997Z,19.20
2022-11-02T19:00:02.331Z,12.50
2022-11-02T19:02:29.199Z,12.90
2022-11-02T19:04:55.755Z,15.75
2022-11-02T19:07:40.872Z,9.00
2022-11-02T19:10:07.788Z,10.88
2022-11-02T19:12:34.232Z,12.80
2022-11-02T19:15:01.960Z,11.18
2022-11-02T19:17:28.333Z,12.68
2022-11-02T19:19:54.803Z,11.70
2022-11-02T19:22:23.490Z,10.63
2022-11-02T19:24:50.482Z,7.72
2022-11-02T19:27:20.025Z,9.32
2022-11-02T19:29:46.711Z,12.73
2022-11-02T19:32:13.300Z,12.35
2022-11-02T19:34:39.801Z,10.38
2022-11-02T19:37:07.921Z,11.07
2022-11-02T19:39:34.993Z,12.05
2022-11-02T19:42:03.105Z,14.32
2022-11-02T19:44:30.554Z,14.07
2022-11-02T19:46:57.095Z,12.52
2022-11-02T19:49:23.507Z,12.60
2022-11-02T19:51:49.887Z,21.80
2022-11-02T19:54:16.499Z,37.03
2022-11-02T19:56:43.061Z,44.65
2022-11-02T19:59:09.737Z,48.90
2022-11-02T20:01:39.634Z,36.67
2022-11-02T20:04:06.449Z,23.73
2022-11-02T20:06:38.026Z,21.15
2022-11-02T20:09:06.456Z,16.02
2022-11-02T20:11:33.423Z,19.48
2022-11-02T20:14:01.731Z,16.50
2022-11-02T20:16:28.553Z,16.60
2022-11-02T20:18:55.796Z,22.40
2022-11-02T20:21:33.054Z,20.67
2022-11-02T20:24:02.990Z,21.35
2022-11-02T20:26:32.557Z,17.73
2022-11-02T20:29:00.376Z,15.88
2022-11-02T20:31:29.693Z,14.43
2022-11-02T20:33:56.251Z,17.52
2022-11-02T20:36:22.716Z,17.77
2022-11-02T20:38:50.895Z,13.85
2022-11-02T20:41:19.168Z,14.23
2022-11-02T20:43:47.419Z,12.38
2022-11-02T20:46:41.069Z,10.77
2022-11-02T20:49:20.645Z,19.80
2022-11-02T20:51:52.526Z,16.23
2022-11-02T20:54:19.615Z,18.42
2022-11-02T20:56:47.013Z,13.68
2022-11-02T20:59:13.570Z,11.70
2022-11-02T21:01:40.259Z,10.63
2022-11-02T21:04:06.904Z,9.85
2022-11-02T21:06:33.614Z,13.25
2022-11-02T21:09:00.578Z,11.95
2022-11-02T21:11:45.780Z,12.55
2022-11-02T21:14:12.203Z,15.55
2022-11-02T21:16:38.639Z,14.27
2022-11-02T21:19:05.172Z,16.85
2022-11-02T21:21:31.547Z,12.60
2022-11-02T21:23:58.172Z,11.77
2022-11-02T21:26:24.624Z,10.32
2022-11-02T21:28:52.139Z,8.95
2022-11-02T21:31:21.305Z,13.07
2022-11-02T21:33:49.453Z,13.63
2022-11-02T21:36:17.365Z,9.10
2022-11-02T21:38:49.876Z,9.50
2022-11-02T21:41:20.100Z,9.05
2022-11-02T21:43:46.576Z,10.30
2022-11-02T21:46:13.134Z,9.68
2022-11-02T21:48:39.625Z,9.88
2022-11-02T21:51:13.391Z,8.77
2022-11-02T21:53:42.107Z,9.77
2022-11-02T21:56:11.151Z,9.70
2022-11-02T21:58:43.009Z,10.15
2022-11-02T22:01:32.866Z,9.73
2022-11-02T22:03:59.699Z,10.43
2022-11-02T22:06:31.047Z,11.18
2022-11-02T22:08:58.758Z,10.02
2022-11-02T22:11:28.356Z,10.80
2022-11-02T22:13:59.453Z,13.45
2022-11-02T22:16:27.538Z,13.07
2022-11-02T22:18:56.798Z,9.10
2022-11-02T22:21:24.285Z,11.75
2022-11-02T22:23:51.628Z,14.13
2022-11-02T22:26:21.640Z,13.00
2022-11-02T22:28:48.731Z,9.02
2022-11-02T22:31:17.903Z,9.82
2022-11-02T22:33:45.908Z,11.18
2022-11-02T22:36:14.527Z,12.55
2022-11-02T22:38:53.961Z,10.43
2022-11-02T22:41:38.771Z,9.05
2022-11-02T22:44:11.034Z,15.20
2022-11-02T22:46:43.228Z,8.50
2022-11-02T22:49:12.026Z,10.10
2022-11-02T22:51:40.598Z,10.05
2022-11-02T22:54:09.460Z,8.80
2022-11-02T22:56:36.023Z,11.13
2022-11-02T22:59:03.155Z,14.27
2022-11-02T23:01:30.951Z,11.60
2022-11-02T23:03:58.428Z,13.55
2022-11-02T23:06:25.839Z,9.02
2022-11-02T23:08:54.500Z,9.80
2022-11-02T23:11:24.805Z,11.40
2022-11-02T23:13:56.321Z,10.20
2022-11-02T23:16:28.474Z,10.10
2022-11-02T23:19:13.647Z,8.33
2022-11-02T23:21:43.924Z,9.38
2022-11-02T23:24:29.986Z,13.13
2022-11-02T23:26:57.391Z,10.93
2022-11-02T23:29:42.619Z,11.98
2022-11-02T23:32:26.834Z,15.27
2022-11-02T23:35:17.168Z,10.27
2022-11-02T23:37:45.669Z,14.60
2022-11-02T23:40:14.499Z,11.52
2022-11-02T23:42:41.140Z,9.93
2022-11-02T23:45:08.615Z,10.38
2022-11-02T23:47:53.870Z,11.07
2022-11-02T23:50:39.657Z,10.98
2022-11-02T23:53:32.555Z,14.55
2022-11-02T23:56:18.348Z,11.48
2022-11-02T23:58:45.299Z,10.48
